Time;durP1;ratioP1;P1;durP2;ratioP2;P2;SDS_P1;SDS_P2;PMS_P1;PMS_P2;Temp;Humidity;BMP_temperature;BMP_pressure;BME280_temperature;BME280_humidity;BME280_pressure;Samples;Min_cycle;Max_cycle;Signal;HPM_P1;HPM_P2
2021/10/27 00:00:50;;;;;;;2.55;1.50;;;10.50;99.90;;;;;;6148234;23;20156;-79
2021/10/27 00:03:15;;;;;;;1.73;1.30;;;10.50;99.90;;;;;;6148236;23;20159;-79
2021/10/27 00:05:41;;;;;;;3.27;1.40;;;10.50;99.90;;;;;;6147078;23;20160;-80
2021/10/27 00:08:07;;;;;;;2.28;1.23;;;10.50;99.90;;;;;;6148365;23;20704;-79
2021/10/27 00:10:33;;;;;;;4.40;1.48;;;10.60;99.90;;;;;;6122255;23;20409;-79
2021/10/27 00:12:59;;;;;;;2.87;1.37;;;10.60;99.90;;;;;;6148438;23;20788;-79
2021/10/27 00:15:25;;;;;;;3.58;1.30;;;10.50;99.90;;;;;;6122123;23;20167;-78
2021/10/27 00:17:51;;;;;;;3.85;1.17;;;10.60;99.90;;;;;;6122631;23;20195;-79
2021/10/27 00:20:17;;;;;;;2.05;1.30;;;10.60;99.90;;;;;;6122004;23;20166;-79
2021/10/27 00:22:42;;;;;;;2.35;1.27;;;10.60;99.90;;;;;;6148285;23;20152;-79
2021/10/27 00:25:10;;;;;;;1.85;1.20;;;10.50;99.90;;;;;;6148379;23;20170;-79
2021/10/27 00:27:36;;;;;;;3.43;1.40;;;10.50;99.90;;;;;;6147991;23;20624;-79
2021/10/27 00:30:02;;;;;;;2.40;1.40;;;10.40;99.90;;;;;;6121918;23;20160;-79
2021/10/27 00:32:27;;;;;;;1.90;1.27;;;10.40;99.90;;;;;;6147881;23;20180;-79
2021/10/27 00:34:53;;;;;;;2.73;1.63;;;10.50;99.90;;;;;;6148621;23;20170;-79
2021/10/27 00:37:19;;;;;;;2.78;1.40;;;10.70;99.90;;;;;;6147956;23;20175;-79
2021/10/27 00:39:48;;;;;;;1.77;1.30;;;10.70;99.90;;;;;;6147785;23;20162;-79
2021/10/27 00:42:13;;;;;;;2.35;1.48;;;10.80;99.90;;;;;;6148222;23;20152;-79
2021/10/27 00:44:41;;;;;;;1.35;1.17;;;10.80;99.90;;;;;;6147879;23;20207;-79
2021/10/27 00:47:09;;;;;;;3.45;1.77;;;10.80;99.90;;;;;;6148013;23;20190;-80
2021/10/27 00:49:37;;;;;;;6.35;1.50;;;11.00;99.90;;;;;;6148129;23;20156;-78
2021/10/27 00:52:06;;;;;;;2.28;1.30;;;11.00;99.90;;;;;;6121659;23;20179;-80
2021/10/27 00:54:33;;;;;;;3.30;1.50;;;11.10;99.90;;;;;;6122047;23;20167;-78
2021/10/27 00:57:00;;;;;;;1.92;1.50;;;11.10;99.90;;;;;;6147896;23;20201;-79
2021/10/27 00:59:27;;;;;;;3.72;1.80;;;11.10;99.90;;;;;;6121855;23;20175;-79
2021/10/27 01:01:54;;;;;;;1.65;1.17;;;11.20;99.90;;;;;;6147776;23;20167;-79
2021/10/27 01:04:22;;;;;;;1.60;1.20;;;11.30;99.90;;;;;;6147892;23;20159;-79
2021/10/27 01:06:48;;;;;;;2.60;1.10;;;11.30;99.90;;;;;;6147590;23;20203;-80
2021/10/27 01:09:14;;;;;;;1.63;1.25;;;11.30;99.90;;;;;;6121825;23;20666;-79
2021/10/27 01:11:40;;;;;;;2.17;1.35;;;11.30;99.90;;;;;;6147580;23;20215;-79
2021/10/27 01:14:07;;;;;;;2.97;1.23;;;11.40;99.90;;;;;;6148392;23;20209;-79
2021/10/27 01:16:33;;;;;;;3.40;1.20;;;11.30;99.90;;;;;;6148113;23;20659;-79
2021/10/27 01:18:59;;;;;;;1.73;1.23;;;11.30;99.90;;;;;;6147861;23;20171;-79
2021/10/27 01:21:26;;;;;;;1.60;1.25;;;11.40;99.90;;;;;;6147689;23;20187;-79
2021/10/27 01:23:52;;;;;;;2.13;1.15;;;11.30;99.90;;;;;;6147542;23;20214;-79
2021/10/27 01:26:18;;;;;;;1.83;1.45;;;11.30;99.90;;;;;;6122092;23;20163;-79
2021/10/27 01:28:44;;;;;;;1.20;1.10;;;11.30;99.90;;;;;;6147958;23;20167;-79
2021/10/27 01:31:11;;;;;;;1.77;1.40;;;11.30;99.90;;;;;;6147612;23;20181;-79
2021/10/27 01:33:37;;;;;;;2.75;1.67;;;11.40;99.90;;;;;;6147754;23;20160;-79
2021/10/27 01:36:04;;;;;;;2.08;1.27;;;11.50;99.90;;;;;;6147460;23;20152;-79
2021/10/27 01:38:31;;;;;;;1.60;1.30;;;11.50;99.90;;;;;;6147172;23;20214;-79
2021/10/27 01:40:57;;;;;;;1.60;1.17;;;11.50;99.90;;;;;;6147628;23;20966;-78
2021/10/27 01:43:22;;;;;;;2.17;1.50;;;11.60;99.90;;;;;;6146822;23;20159;-79
2021/10/27 01:45:48;;;;;;;2.88;1.60;;;11.60;99.90;;;;;;6147587;23;20727;-78
2021/10/27 01:48:14;;;;;;;2.13;1.33;;;11.60;99.90;;;;;;6120959;23;20640;-79
2021/10/27 01:50:41;;;;;;;4.90;1.60;;;11.50;99.90;;;;;;6147292;23;20262;-79
2021/10/27 01:53:07;;;;;;;1.48;1.20;;;11.60;99.90;;;;;;6146983;23;20158;-78
2021/10/27 01:55:32;;;;;;;1.98;1.30;;;11.50;99.90;;;;;;6147248;23;20226;-78
2021/10/27 01:57:58;;;;;;;4.35;1.77;;;11.50;99.90;;;;;;6147408;23;20258;-78
2021/10/27 02:00:24;;;;;;;3.40;1.63;;;11.50;99.90;;;;;;6147155;23;20231;-79
2021/10/27 02:02:49;;;;;;;2.03;1.30;;;11.50;99.90;;;;;;6147086;23;20152;-79
2021/10/27 02:05:15;;;;;;;1.42;1.33;;;11.60;99.90;;;;;;6147257;23;20226;-79
2021/10/27 02:07:41;;;;;;;4.30;1.35;;;11.60;99.90;;;;;;6147292;23;20175;-79
2021/10/27 02:10:08;;;;;;;2.78;1.20;;;11.60;99.90;;;;;;6146850;23;20156;-79
2021/10/27 02:12:35;;;;;;;1.65;1.48;;;11.60;99.90;;;;;;6147112;23;20206;-78
2021/10/27 02:15:02;;;;;;;3.15;1.35;;;11.50;99.90;;;;;;6147402;23;20155;-78
2021/10/27 02:17:28;;;;;;;2.08;1.50;;;11.60;99.90;;;;;;6121031;23;20215;-79
2021/10/27 02:19:53;;;;;;;1.73;1.40;;;11.60;99.90;;;;;;6146989;23;20140;-79
2021/10/27 02:22:19;;;;;;;2.83;1.42;;;11.60;99.90;;;;;;6146958;23;20160;-79
2021/10/27 02:24:44;;;;;;;2.30;1.35;;;11.50;99.90;;;;;;6147071;23;20164;-79
2021/10/27 02:27:10;;;;;;;2.72;1.63;;;11.50;99.90;;;;;;6146919;23;20207;-79
2021/10/27 02:29:36;;;;;;;3.83;1.35;;;11.50;99.90;;;;;;6147084;23;20156;-78
2021/10/27 02:32:02;;;;;;;3.03;1.45;;;11.50;99.90;;;;;;6146992;23;20623;-78
2021/10/27 02:34:28;;;;;;;2.00;1.60;;;11.50;99.90;;;;;;6148503;23;21083;-78
2021/10/27 02:36:54;;;;;;;3.22;1.70;;;11.60;99.90;;;;;;6148816;23;20168;-78
2021/10/27 02:39:20;;;;;;;2.20;1.58;;;11.60;99.90;;;;;;6148970;23;20148;-78
2021/10/27 02:41:45;;;;;;;4.00;1.88;;;11.50;99.90;;;;;;6148751;23;20182;-77
2021/10/27 02:44:11;;;;;;;2.03;1.50;;;11.60;99.90;;;;;;6148930;23;20156;-78
2021/10/27 02:46:37;;;;;;;2.30;1.42;;;11.60;99.90;;;;;;6148393;23;20175;-78
2021/10/27 02:49:02;;;;;;;2.33;1.75;;;11.60;99.90;;;;;;6122847;23;20214;-79
2021/10/27 02:51:28;;;;;;;2.45;1.23;;;11.60;99.90;;;;;;6148389;23;20238;-79
2021/10/27 02:53:54;;;;;;;1.58;1.40;;;11.60;99.90;;;;;;6149174;23;20183;-79
2021/10/27 02:56:19;;;;;;;3.35;1.60;;;11.60;99.90;;;;;;6148609;23;20162;-79
2021/10/27 02:58:45;;;;;;;3.85;1.73;;;11.60;99.90;;;;;;6149072;23;20160;-79
2021/10/27 03:01:11;;;;;;;3.92;1.70;;;11.60;99.90;;;;;;6148629;23;20156;-79
2021/10/27 03:03:37;;;;;;;1.95;1.70;;;11.50;99.90;;;;;;6148821;23;20163;-79
2021/10/27 03:06:02;;;;;;;2.40;1.55;;;11.50;99.90;;;;;;6122552;23;20214;-78
2021/10/27 03:08:28;;;;;;;2.88;1.73;;;11.50;99.90;;;;;;6148860;23;20266;-79
2021/10/27 03:10:53;;;;;;;3.65;2.03;;;11.50;99.90;;;;;;6122200;23;20179;-78
2021/10/27 03:13:20;;;;;;;2.50;1.60;;;11.50;99.90;;;;;;6148860;23;20159;-78
2021/10/27 03:15:45;;;;;;;1.88;1.55;;;11.60;99.90;;;;;;6148855;23;20539;-78
2021/10/27 03:18:11;;;;;;;2.10;1.90;;;11.50;99.90;;;;;;6122595;23;20195;-79
2021/10/27 03:20:36;;;;;;;3.90;1.48;;;11.50;99.90;;;;;;6148422;23;20631;-78
2021/10/27 03:23:02;;;;;;;3.10;1.67;;;11.60;99.90;;;;;;6148938;23;20155;-79
2021/10/27 03:25:28;;;;;;;2.33;1.80;;;11.50;99.90;;;;;;6148842;23;20152;-78
2021/10/27 03:27:54;;;;;;;2.40;1.63;;;11.50;99.90;;;;;;6148473;23;20296;-79
2021/10/27 03:30:20;;;;;;;2.83;1.65;;;11.50;99.90;;;;;;6148774;23;20156;-79
2021/10/27 03:32:45;;;;;;;2.55;1.83;;;11.40;99.90;;;;;;6147993;23;20183;-78
2021/10/27 03:35:11;;;;;;;2.28;1.75;;;11.40;99.90;;;;;;6148868;23;20183;-78
2021/10/27 03:37:37;;;;;;;3.20;1.80;;;11.50;99.90;;;;;;6148528;23;20168;-78
2021/10/27 03:40:04;;;;;;;2.88;1.65;;;11.50;99.90;;;;;;6148428;23;20156;-79
2021/10/27 03:42:30;;;;;;;2.13;1.77;;;11.50;99.90;;;;;;6148255;23;20156;-78
2021/10/27 03:44:56;;;;;;;4.20;1.98;;;11.40;99.90;;;;;;6148301;23;20155;-79
2021/10/27 03:47:21;;;;;;;2.78;1.95;;;11.40;99.90;;;;;;6148746;23;20176;-79
2021/10/27 03:49:48;;;;;;;4.47;2.30;;;11.40;99.90;;;;;;6121806;23;20497;-78
2021/10/27 03:52:14;;;;;;;4.10;1.80;;;11.30;99.90;;;;;;6122088;23;20682;-79
2021/10/27 03:54:40;;;;;;;2.80;2.33;;;11.30;99.90;;;;;;6148424;23;20247;-79
2021/10/27 03:57:06;;;;;;;3.50;2.30;;;11.30;99.90;;;;;;6122065;23;20225;-79
2021/10/27 03:59:31;;;;;;;4.50;2.08;;;11.30;99.90;;;;;;6122269;23;20166;-79
2021/10/27 04:01:57;;;;;;;6.20;2.40;;;11.30;99.90;;;;;;6148209;23;20242;-78
2021/10/27 04:04:23;;;;;;;2.50;1.92;;;11.20;99.90;;;;;;6148668;23;20526;-78
2021/10/27 04:06:48;;;;;;;4.15;2.40;;;11.30;99.90;;;;;;6121863;23;20194;-79
2021/10/27 04:09:14;;;;;;;4.03;1.98;;;11.30;99.90;;;;;;6122736;23;20164;-79
2021/10/27 04:11:41;;;;;;;2.70;1.90;;;11.30;99.90;;;;;;6148158;23;20668;-79
2021/10/27 04:14:07;;;;;;;3.35;2.10;;;11.40;99.90;;;;;;6148362;23;20152;-79
2021/10/27 04:16:32;;;;;;;4.78;2.22;;;11.40;99.90;;;;;;6148342;23;20175;-78
2021/10/27 04:18:58;;;;;;;4.63;1.98;;;11.40;99.90;;;;;;6122155;23;20175;-78
2021/10/27 04:21:24;;;;;;;5.47;2.28;;;11.30;99.90;;;;;;6148242;23;20156;-78
2021/10/27 04:23:49;;;;;;;4.43;2.65;;;11.40;99.90;;;;;;6121770;23;20195;-79
2021/10/27 04:26:15;;;;;;;3.22;2.30;;;11.40;99.90;;;;;;6148202;23;20148;-79
2021/10/27 04:28:40;;;;;;;3.55;2.25;;;11.30;99.90;;;;;;6147838;23;20152;-78
2021/10/27 04:31:06;;;;;;;5.65;2.28;;;11.40;99.90;;;;;;6148152;23;20187;-78
2021/10/27 04:33:32;;;;;;;3.72;2.05;;;11.40;99.90;;;;;;6147613;23;20589;-78
2021/10/27 04:35:58;;;;;;;3.22;2.00;;;11.40;99.90;;;;;;6148143;23;20713;-78
2021/10/27 04:38:23;;;;;;;6.20;2.33;;;11.40;99.90;;;;;;6121999;23;20186;-78
2021/10/27 04:40:50;;;;;;;2.25;1.67;;;11.40;99.90;;;;;;6147578;23;20199;-79
2021/10/27 04:43:16;;;;;;;3.30;1.73;;;11.50;99.90;;;;;;6147737;23;20458;-79
2021/10/27 04:45:41;;;;;;;3.08;1.85;;;11.50;99.90;;;;;;6147748;23;20596;-79
2021/10/27 04:48:08;;;;;;;3.63;2.03;;;11.50;99.90;;;;;;6147737;23;20178;-79
2021/10/27 04:50:34;;;;;;;3.75;1.98;;;11.50;99.90;;;;;;6147617;23;20802;-79
2021/10/27 04:53:00;;;;;;;4.35;1.95;;;11.50;99.90;;;;;;6147820;23;20151;-79
2021/10/27 04:55:27;;;;;;;6.35;1.90;;;11.50;99.90;;;;;;6147814;23;20156;-79
2021/10/27 04:57:52;;;;;;;3.53;2.10;;;11.40;99.90;;;;;;6147264;23;20179;-79
2021/10/27 05:00:18;;;;;;;2.58;1.75;;;11.40;99.90;;;;;;6147838;23;20155;-79
2021/10/27 05:02:43;;;;;;;2.20;1.73;;;11.40;99.90;;;;;;6147296;23;20156;-79
2021/10/27 05:05:09;;;;;;;2.55;1.60;;;11.50;99.90;;;;;;6121530;23;20164;-78
2021/10/27 05:07:35;;;;;;;2.05;1.67;;;11.40;99.90;;;;;;6147722;23;20192;-79
2021/10/27 05:10:01;;;;;;;3.08;1.58;;;11.50;99.90;;;;;;6147311;23;20160;-79
2021/10/27 05:12:27;;;;;;;2.88;1.92;;;11.40;99.90;;;;;;6149142;23;20740;-79
2021/10/27 05:14:54;;;;;;;5.07;2.03;;;11.50;99.90;;;;;;6148250;23;20263;-79
2021/10/27 05:17:20;;;;;;;1.83;1.70;;;11.40;99.90;;;;;;6148595;23;20186;-77
2021/10/27 05:19:46;;;;;;;3.90;1.70;;;11.50;99.90;;;;;;6148980;23;20144;-79
2021/10/27 05:22:14;;;;;;;3.05;1.85;;;11.50;99.90;;;;;;6147756;23;20175;-79
2021/10/27 05:24:41;;;;;;;2.67;1.45;;;11.50;99.90;;;;;;6147487;23;20171;-79
2021/10/27 05:27:08;;;;;;;2.53;1.73;;;11.50;99.90;;;;;;6147471;23;20255;-79
2021/10/27 05:29:35;;;;;;;3.35;1.92;;;11.50;99.90;;;;;;6147611;23;20186;-78
2021/10/27 05:32:02;;;;;;;3.53;1.83;;;11.60;99.90;;;;;;6146900;23;20229;-78
2021/10/27 05:34:28;;;;;;;2.80;1.58;;;11.60;99.90;;;;;;6121659;23;20152;-78
2021/10/27 05:36:54;;;;;;;3.83;1.75;;;11.60;99.90;;;;;;6147339;23;20198;-79
2021/10/27 05:39:19;;;;;;;2.22;1.60;;;11.60;99.90;;;;;;6147685;23;20148;-79
2021/10/27 05:41:47;;;;;;;3.55;1.90;;;11.50;99.90;;;;;;6120923;23;20167;-79
2021/10/27 05:44:13;;;;;;;2.78;1.63;;;11.50;99.90;;;;;;6147552;23;20212;-78
2021/10/27 05:46:41;;;;;;;5.28;2.00;;;11.50;99.90;;;;;;6147154;23;20595;-79
2021/10/27 05:49:16;;;;;;;3.15;1.67;;;11.60;99.90;;;;;;6147804;23;20162;-79
2021/10/27 05:51:46;;;;;;;3.33;1.90;;;11.60;99.90;;;;;;6147204;23;20167;-79
2021/10/27 05:56:56;;;;;;;2.88;2.00;;;11.60;99.90;;;;;;6147104;23;20570;-79
2021/10/27 05:59:22;;;;;;;2.03;1.70;;;11.60;99.90;;;;;;6147555;23;20147;-77
2021/10/27 06:01:48;;;;;;;4.32;1.80;;;11.70;99.90;;;;;;6146785;23;20259;-77
2021/10/27 06:04:16;;;;;;;3.38;1.88;;;11.80;99.90;;;;;;6120681;23;20163;-79
2021/10/27 06:06:42;;;;;;;2.50;1.98;;;11.70;99.90;;;;;;6120784;23;20267;-79
2021/10/27 06:09:08;;;;;;;2.40;1.90;;;11.70;99.90;;;;;;6116793;23;20564;-79
2021/10/27 06:11:33;;;;;;;4.53;2.60;;;11.80;99.90;;;;;;6148752;23;20168;-78
2021/10/27 06:14:01;;;;;;;3.67;1.80;;;11.80;99.90;;;;;;6121761;23;20175;-78
2021/10/27 06:16:27;;;;;;;2.45;1.65;;;11.90;99.90;;;;;;6148780;23;20649;-78
2021/10/27 06:18:53;;;;;;;2.45;1.67;;;11.80;99.90;;;;;;6149139;23;20168;-79
2021/10/27 06:21:18;;;;;;;3.63;2.03;;;11.90;99.90;;;;;;6149041;23;20218;-79
2021/10/27 06:23:44;;;;;;;2.10;1.90;;;11.80;99.90;;;;;;6148744;23;20159;-79
2021/10/27 06:26:10;;;;;;;2.55;2.03;;;11.90;99.90;;;;;;6148954;23;20159;-79
2021/10/27 06:28:45;;;;;;;2.88;1.70;;;11.80;99.90;;;;;;6149138;23;20196;-79
2021/10/27 06:31:25;;;;;;;3.85;2.10;;;11.80;99.90;;;;;;6121932;23;20636;-79
2021/10/27 06:34:05;;;;;;;4.90;2.15;;;11.90;99.90;;;;;;6121831;23;20217;-80
2021/10/27 06:36:40;;;;;;;2.35;1.75;;;11.90;99.90;;;;;;6148365;23;20158;-79
2021/10/27 06:46:59;;;;;;;3.28;2.20;;;12.10;99.90;;;;;;6147934;23;20190;-79
2021/10/27 06:49:25;;;;;;;3.90;1.98;;;12.10;99.90;;;;;;6122471;23;20592;-79
2021/10/27 06:51:50;;;;;;;3.80;1.90;;;12.20;99.90;;;;;;6123053;23;20194;-76
2021/10/27 06:54:16;;;;;;;2.10;1.90;;;12.20;99.90;;;;;;6122317;23;20190;-78
2021/10/27 06:56:42;;;;;;;4.35;2.03;;;12.20;99.90;;;;;;6148510;23;20199;-79
2021/10/27 06:59:42;;;;;;;2.53;1.63;;;12.20;99.90;;;;;;6120776;23;20160;-79
2021/10/27 07:15:17;;;;;;;2.08;1.67;;;12.40;99.90;;;;;;6147983;23;20202;-77
2021/10/27 07:17:54;;;;;;;4.93;1.83;;;12.40;99.90;;;;;;6121590;23;20198;-78
2021/10/27 07:20:22;;;;;;;2.53;1.77;;;12.40;99.90;;;;;;6119849;23;20159;-77
2021/10/27 07:22:48;;;;;;;3.20;1.90;;;12.40;99.90;;;;;;6119763;23;20272;-78
2021/10/27 07:25:15;;;;;;;1.90;1.75;;;12.40;99.90;;;;;;6146556;23;20186;-78
2021/10/27 07:27:41;;;;;;;2.33;1.70;;;12.40;99.90;;;;;;6147854;23;20178;-76
2021/10/27 07:30:07;;;;;;;4.45;1.83;;;12.50;99.90;;;;;;6146564;23;20159;-79
2021/10/27 07:32:33;;;;;;;4.68;1.63;;;12.50;99.90;;;;;;6148973;23;20195;-79
2021/10/27 07:35:04;;;;;;;2.38;1.50;;;12.50;99.90;;;;;;6148806;23;20151;-79
2021/10/27 07:43:00;;;;;;;3.40;1.60;;;12.60;99.90;;;;;;6155400;23;20522;-79
2021/10/27 07:45:26;;;;;;;2.30;1.50;;;12.60;99.90;;;;;;6146530;23;20377;-80
2021/10/27 07:47:54;;;;;;;1.83;1.30;;;12.60;99.90;;;;;;6145946;23;20179;-79
2021/10/27 07:50:24;;;;;;;3.13;1.70;;;12.60;99.90;;;;;;6145985;23;20179;-80
2021/10/27 07:52:51;;;;;;;1.52;1.42;;;12.70;99.90;;;;;;6119738;23;20176;-79
2021/10/27 07:55:17;;;;;;;2.50;1.83;;;12.80;99.90;;;;;;6145932;23;20611;-79
2021/10/27 07:57:43;;;;;;;2.08;1.77;;;12.80;99.90;;;;;;6145732;23;20253;-80
2021/10/27 08:00:09;;;;;;;1.45;1.35;;;12.90;99.90;;;;;;6119351;23;20661;-80
2021/10/27 08:02:35;;;;;;;3.15;1.50;;;12.90;99.90;;;;;;6145579;23;20156;-79
2021/10/27 08:05:01;;;;;;;2.28;1.50;;;13.00;99.90;;;;;;6145785;23;20166;-80
2021/10/27 08:07:27;;;;;;;2.08;1.50;;;13.10;99.90;;;;;;6145696;23;20172;-79
2021/10/27 08:09:52;;;;;;;1.70;1.60;;;13.10;99.90;;;;;;6145471;23;20171;-79
2021/10/27 08:12:18;;;;;;;1.65;1.55;;;13.10;99.90;;;;;;6145327;23;20516;-79
2021/10/27 08:14:44;;;;;;;1.70;1.60;;;13.10;99.90;;;;;;6145676;23;20210;-79
2021/10/27 08:17:09;;;;;;;1.92;1.50;;;13.20;99.90;;;;;;6145189;23;20207;-79
2021/10/27 08:19:35;;;;;;;2.22;1.70;;;13.10;99.90;;;;;;6119387;23;20435;-80
2021/10/27 08:22:04;;;;;;;1.60;1.50;;;13.10;99.90;;;;;;6119370;23;20277;-79
2021/10/27 08:24:30;;;;;;;2.30;1.77;;;13.20;99.90;;;;;;6145578;23;20504;-79
2021/10/27 08:27:05;;;;;;;2.15;1.48;;;13.20;99.90;;;;;;6145306;23;20250;-79
2021/10/27 08:29:36;;;;;;;2.47;1.58;;;13.30;99.90;;;;;;6145338;23;20481;-79
2021/10/27 08:32:09;;;;;;;5.13;1.40;;;13.40;99.90;;;;;;6118652;23;20238;-79
2021/10/27 08:34:39;;;;;;;2.88;1.52;;;13.40;99.90;;;;;;6119424;23;20154;-80
2021/10/27 08:37:05;;;;;;;1.73;1.60;;;13.50;99.90;;;;;;6145145;23;20181;-80
2021/10/27 08:39:30;;;;;;;3.38;1.67;;;13.50;99.90;;;;;;6144194;23;20156;-79
2021/10/27 08:41:56;;;;;;;1.63;1.45;;;13.60;99.90;;;;;;6144866;23;20159;-80
2021/10/27 08:44:21;;;;;;;3.20;1.90;;;13.60;99.90;;;;;;6145687;23;20600;-80
2021/10/27 08:46:48;;;;;;;1.70;1.50;;;13.70;99.90;;;;;;6145437;23;20203;-80
2021/10/27 08:49:20;;;;;;;2.65;1.40;;;13.80;99.90;;;;;;6145125;23;20238;-79
2021/10/27 08:51:46;;;;;;;2.20;1.48;;;13.90;99.90;;;;;;6119218;23;20533;-81
2021/10/27 08:54:11;;;;;;;3.25;2.00;;;13.90;99.90;;;;;;6118835;23;20179;-79
2021/10/27 08:56:43;;;;;;;2.45;1.63;;;13.90;99.90;;;;;;6145243;23;20176;-79
2021/10/27 10:04:23;;;;;;;2.90;1.58;;;14.60;99.90;;;;;;6144621;23;20175;-80
2021/10/27 10:06:51;;;;;;;3.15;1.35;;;14.60;99.90;;;;;;6144827;23;20182;-79
2021/10/27 10:09:18;;;;;;;2.30;1.40;;;14.60;99.90;;;;;;6144001;23;20160;-80
2021/10/27 10:11:44;;;;;;;3.58;1.67;;;14.60;99.90;;;;;;6118191;23;20186;-79
2021/10/27 10:14:12;;;;;;;1.58;1.30;;;14.60;99.90;;;;;;6144234;23;20155;-80
2021/10/27 10:16:47;;;;;;;1.88;1.65;;;14.60;99.90;;;;;;6118783;23;20183;-78
2021/10/27 10:19:15;;;;;;;2.03;1.33;;;14.60;99.90;;;;;;6118724;23;20182;-80
2021/10/27 10:21:47;;;;;;;1.88;1.50;;;14.70;99.90;;;;;;6144236;23;20210;-79
2021/10/27 10:26:45;;;;;;;1.67;1.30;;;14.90;99.90;;;;;;6144451;23;20634;-80
2021/10/27 10:29:33;;;;;;;2.97;1.40;;;14.90;99.90;;;;;;6144713;23;20167;-80
2021/10/27 10:32:24;;;;;;;3.22;1.50;;;14.90;99.90;;;;;;6144336;23;20171;-79
2021/10/27 10:34:56;;;;;;;3.95;1.55;;;14.90;99.90;;;;;;6144849;23;20240;-78
2021/10/27 10:37:35;;;;;;;1.95;1.40;;;15.00;99.90;;;;;;6145349;23;20176;-80
2021/10/27 10:43:22;;;;;;;2.63;1.50;;;15.10;99.90;;;;;;6144734;23;20609;-80
2021/10/27 10:45:57;;;;;;;2.45;1.50;;;15.20;99.90;;;;;;6144707;23;20151;-79
2021/10/27 11:03:40;;;;;;;2.10;1.42;;;15.40;99.90;;;;;;6146889;23;20151;-80
2021/10/27 11:39:34;;;;;;;2.38;1.63;;;15.50;99.90;;;;;;6146496;23;20497;-78
2021/10/27 11:42:41;;;;;;;2.17;1.35;;;15.60;99.90;;;;;;6146000;23;20564;-79
2021/10/27 11:47:55;;;;;;;4.75;1.80;;;15.20;99.90;;;;;;6155570;23;20254;-78
2021/10/27 11:50:23;;;;;;;2.65;1.40;;;15.20;99.90;;;;;;6117227;23;20620;-79
2021/10/27 11:52:52;;;;;;;3.08;1.27;;;15.10;99.90;;;;;;6117811;23;20176;-79
2021/10/27 11:55:19;;;;;;;2.15;1.55;;;15.20;99.90;;;;;;6120589;23;20481;-79
2021/10/27 11:57:47;;;;;;;3.40;1.17;;;15.30;99.90;;;;;;6147182;23;20164;-79
2021/10/27 12:03:07;;;;;;;2.67;1.70;;;15.20;99.90;;;;;;6155977;23;20235;-78
2021/10/27 12:05:42;;;;;;;2.17;1.42;;;15.30;99.90;;;;;;6147219;23;20452;-79
2021/10/27 12:11:11;;;;;;;3.00;1.40;;;15.30;99.90;;;;;;6158533;23;20785;-79
2021/10/27 12:13:59;;;;;;;2.65;1.58;;;15.30;99.90;;;;;;6148254;23;20549;-81
2021/10/27 12:16:57;;;;;;;1.50;1.40;;;15.30;99.90;;;;;;6148028;23;20140;-78
2021/10/27 12:19:29;;;;;;;2.00;1.33;;;15.20;99.90;;;;;;6121908;23;20671;-80
2021/10/27 12:22:00;;;;;;;3.08;1.70;;;15.20;99.90;;;;;;6144360;23;20303;-79
2021/10/27 12:24:28;;;;;;;1.95;1.50;;;15.20;99.90;;;;;;6144447;23;20151;-79
2021/10/27 12:27:17;;;;;;;3.92;1.60;;;15.20;99.90;;;;;;6118493;23;20652;-78
2021/10/27 12:29:50;;;;;;;3.00;1.50;;;15.20;99.90;;;;;;6144516;23;20140;-79
2021/10/27 12:32:16;;;;;;;1.92;1.58;;;15.10;99.90;;;;;;6144293;23;20626;-78
2021/10/27 12:34:54;;;;;;;2.08;1.58;;;15.20;99.90;;;;;;6118757;23;20479;-79
2021/10/27 12:37:36;;;;;;;1.60;1.38;;;15.30;99.90;;;;;;6119283;23;20179;-79
2021/10/27 12:40:24;;;;;;;2.17;1.70;;;15.30;99.90;;;;;;6147415;23;20143;-81
2021/10/27 12:43:11;;;;;;;3.15;1.40;;;15.40;99.90;;;;;;6148291;23;20239;-80
2021/10/27 12:45:51;;;;;;;2.55;1.50;;;15.40;99.90;;;;;;6120622;23;20163;-78
2021/10/27 12:48:21;;;;;;;3.13;1.50;;;15.40;99.90;;;;;;6147790;23;20171;-81
2021/10/27 12:50:53;;;;;;;3.15;1.38;;;15.50;99.90;;;;;;6147565;23;20548;-78
2021/10/27 12:53:45;;;;;;;1.50;1.40;;;15.50;99.90;;;;;;6147924;23;20159;-82
2021/10/27 12:56:17;;;;;;;2.28;1.38;;;15.40;99.90;;;;;;6146499;23;20175;-82
2021/10/27 12:58:49;;;;;;;2.25;1.50;;;15.40;99.90;;;;;;6144147;23;20219;-78
2021/10/27 13:09:21;;;;;;;2.67;1.50;;;15.60;99.90;;;;;;6143591;23;20480;-79
2021/10/27 13:29:52;;;;;;;2.92;1.45;;;15.60;99.90;;;;;;6146819;23;20155;-80
2021/10/27 13:32:24;;;;;;;1.73;1.15;;;15.70;99.90;;;;;;6120438;23;20687;-81
2021/10/27 13:34:50;;;;;;;2.80;1.40;;;15.60;99.90;;;;;;6146910;23;20555;-79
2021/10/27 13:37:18;;;;;;;2.33;1.33;;;15.70;99.90;;;;;;6121731;23;20279;-80
2021/10/27 13:39:44;;;;;;;1.95;1.38;;;15.60;99.90;;;;;;6121432;23;20550;-81
2021/10/27 13:42:19;;;;;;;2.08;1.20;;;15.50;99.90;;;;;;6120329;23;20687;-82
2021/10/27 14:06:20;;;;;;;2.38;1.15;;;15.30;99.90;;;;;;6147476;23;20202;-79
2021/10/27 14:14:04;;;;;;;1.58;1.10;;;15.10;99.90;;;;;;6147792;23;20627;-79
2021/10/27 14:19:28;;;;;;;1.77;1.38;;;15.10;99.90;;;;;;6143783;23;20193;-78
2021/10/27 15:15:39;;;;;;;3.15;1.33;;;14.60;99.90;;;;;;6145159;23;20203;-76
2021/10/27 15:21:44;;;;;;;2.78;2.00;;;14.40;99.90;;;;;;6145895;23;20159;-79
2021/10/27 15:32:37;;;;;;;2.97;2.10;;;14.10;99.90;;;;;;6156434;23;20179;-79
2021/10/27 15:35:19;;;;;;;2.72;1.90;;;14.00;99.90;;;;;;6118727;23;20159;-79
2021/10/27 15:40:24;;;;;;;2.42;2.05;;;14.00;99.90;;;;;;6119248;23;20207;-79
2021/10/27 15:43:21;;;;;;;3.38;1.77;;;13.80;99.90;;;;;;6150081;23;20627;-76
2021/10/27 15:51:17;;;;;;;3.17;2.08;;;13.40;99.90;;;;;;6149372;23;20266;-76
2021/10/27 15:53:43;;;;;;;2.35;1.92;;;13.30;99.90;;;;;;6145403;23;20144;-77
2021/10/27 15:56:09;;;;;;;3.53;2.17;;;13.20;99.90;;;;;;6146409;23;20163;-77
2021/10/27 15:58:34;;;;;;;2.10;1.70;;;13.20;99.90;;;;;;6145085;23;20172;-77
2021/10/27 16:01:00;;;;;;;1.98;1.73;;;13.20;99.90;;;;;;6145317;23;20593;-79
2021/10/27 16:03:26;;;;;;;2.40;1.92;;;13.20;99.90;;;;;;6146879;23;20238;-79
2021/10/27 16:05:55;;;;;;;2.58;2.00;;;13.00;99.90;;;;;;6120828;23;20214;-79
2021/10/27 16:08:22;;;;;;;5.30;1.85;;;13.00;99.90;;;;;;6147099;23;20176;-79
2021/10/27 16:10:50;;;;;;;2.88;2.03;;;13.00;99.90;;;;;;6146822;23;20152;-79
2021/10/27 16:13:17;;;;;;;3.88;1.98;;;13.00;99.90;;;;;;6120332;23;20163;-80
2021/10/27 16:15:52;;;;;;;2.05;1.90;;;12.90;99.90;;;;;;6147724;23;20596;-79
2021/10/27 16:18:18;;;;;;;4.70;1.90;;;12.80;99.90;;;;;;6146560;23;20349;-78
2021/10/27 16:20:44;;;;;;;2.35;2.00;;;12.80;99.90;;;;;;6142643;23;20501;-79
2021/10/27 16:23:12;;;;;;;3.22;1.92;;;12.80;99.90;;;;;;6143462;23;20160;-80
2021/10/27 16:25:38;;;;;;;3.10;1.90;;;12.70;99.90;;;;;;6121832;23;20516;-79
2021/10/27 16:28:05;;;;;;;2.05;1.85;;;12.60;99.90;;;;;;6143503;23;20186;-78
2021/10/27 16:30:31;;;;;;;2.63;1.90;;;12.50;99.90;;;;;;6142015;23;20155;-79
2021/10/27 16:32:57;;;;;;;2.63;1.52;;;12.40;99.90;;;;;;6143717;23;20214;-79
2021/10/27 16:35:24;;;;;;;2.88;1.88;;;12.30;99.90;;;;;;6142504;23;20152;-79
2021/10/27 16:37:51;;;;;;;2.63;1.88;;;12.30;99.90;;;;;;6143027;23;20507;-79
2021/10/27 16:40:16;;;;;;;2.50;1.75;;;12.20;99.90;;;;;;6142566;23;20152;-79
2021/10/27 16:42:42;;;;;;;2.30;2.00;;;12.20;99.90;;;;;;6140821;23;20162;-79
2021/10/27 16:45:10;;;;;;;2.20;1.80;;;12.20;99.90;;;;;;6142749;23;20166;-79
2021/10/27 16:47:36;;;;;;;1.90;1.80;;;12.20;99.90;;;;;;6142312;23;20179;-78
2021/10/27 16:50:05;;;;;;;2.78;1.70;;;12.20;99.90;;;;;;6142198;23;20159;-79
2021/10/27 16:52:31;;;;;;;3.15;1.67;;;12.30;99.90;;;;;;6140898;23;20690;-79
2021/10/27 16:54:57;;;;;;;2.95;1.70;;;12.30;99.90;;;;;;6142382;23;20186;-78
2021/10/27 16:57:23;;;;;;;2.45;1.58;;;12.30;99.90;;;;;;6141260;23;20255;-78
2021/10/27 16:59:50;;;;;;;2.67;1.95;;;12.30;99.90;;;;;;6145891;23;20842;-79
2021/10/27 17:02:16;;;;;;;2.67;1.50;;;12.20;99.90;;;;;;6146038;23;20552;-78
2021/10/27 17:04:41;;;;;;;4.85;1.85;;;12.10;99.90;;;;;;6120303;23;20159;-79
2021/10/27 17:07:08;;;;;;;1.63;1.52;;;12.10;99.90;;;;;;6146001;23;20175;-78
2021/10/27 17:09:34;;;;;;;3.15;1.92;;;12.10;99.90;;;;;;6146117;23;20159;-79
2021/10/27 17:12:00;;;;;;;2.22;1.60;;;12.00;99.90;;;;;;6145635;23;20257;-78
2021/10/27 17:14:26;;;;;;;2.72;1.67;;;12.00;99.90;;;;;;6119526;23;20589;-78
2021/10/27 17:16:51;;;;;;;3.05;1.70;;;11.90;99.90;;;;;;6146288;23;20259;-78
2021/10/27 17:19:17;;;;;;;7.53;4.20;;;11.90;99.90;;;;;;6146254;23;20215;-78
2021/10/27 17:21:43;;;;;;;5.95;4.65;;;11.80;99.90;;;;;;6145846;23;20155;-78
2021/10/27 17:24:14;;;;;;;4.57;3.58;;;11.80;99.90;;;;;;6146357;23;20243;-78
2021/10/27 17:26:41;;;;;;;5.57;4.82;;;11.70;99.90;;;;;;6146178;23;20207;-79
2021/10/27 17:29:07;;;;;;;5.60;3.00;;;11.60;99.90;;;;;;6119864;23;20251;-78
2021/10/27 17:31:33;;;;;;;3.15;2.80;;;11.50;99.90;;;;;;6145926;23;20211;-79
2021/10/27 17:33:59;;;;;;;5.60;3.30;;;11.50;99.90;;;;;;6146070;23;20151;-79
2021/10/27 17:36:25;;;;;;;2.28;2.08;;;11.30;99.90;;;;;;6145378;23;21034;-79
2021/10/27 17:38:53;;;;;;;2.47;2.28;;;11.30;99.90;;;;;;6146140;23;20175;-79